createdAt,value
2019-04-14T00:02:18.518Z,5.23
2019-04-14T00:04:48.772Z,4.90
2019-04-14T00:07:18.755Z,3.20
2019-04-14T00:09:47.918Z,4.33
2019-04-14T00:12:17.015Z,3.27
2019-04-14T00:14:46.923Z,3.00
2019-04-14T00:17:17.229Z,2.30
2019-04-14T00:19:46.375Z,3.33
2019-04-14T00:22:16.254Z,4.50
2019-04-14T00:24:46.635Z,2.83
2019-04-14T00:27:17.058Z,2.83
2019-04-14T00:29:46.199Z,2.50
2019-04-14T00:32:16.249Z,2.67
2019-04-14T00:35:16.808Z,2.40
2019-04-14T00:38:08.493Z,2.60
2019-04-14T00:40:43.463Z,2.70
2019-04-14T00:43:31.534Z,2.80
2019-04-14T00:46:05.839Z,3.10
2019-04-14T00:48:34.980Z,3.50
2019-04-14T00:51:04.870Z,4.60
2019-04-14T00:53:33.979Z,3.30
2019-04-14T00:56:04.068Z,2.67
2019-04-14T00:58:34.303Z,2.23
2019-04-14T01:01:04.743Z,3.03
2019-04-14T01:03:35.070Z,2.63
2019-04-14T01:06:05.456Z,2.30
2019-04-14T01:08:34.585Z,3.20
2019-04-14T01:11:03.632Z,2.97
2019-04-14T01:13:33.275Z,3.13
2019-04-14T01:16:08.721Z,2.70
2019-04-14T01:18:34.082Z,2.90
2019-04-14T01:21:04.501Z,2.50
2019-04-14T01:23:34.718Z,3.27
2019-04-14T01:26:05.025Z,3.00
2019-04-14T01:28:35.359Z,2.13
2019-04-14T01:31:05.525Z,2.50
2019-04-14T01:33:35.598Z,2.33
2019-04-14T01:36:06.063Z,2.83
2019-04-14T01:38:36.375Z,2.07
2019-04-14T01:41:06.445Z,1.90
2019-04-14T01:43:36.418Z,2.03
2019-04-14T01:46:14.643Z,2.63
2019-04-14T01:48:36.714Z,3.87
2019-04-14T01:51:31.005Z,2.40
2019-04-14T01:54:21.395Z,2.20
2019-04-14T01:57:02.413Z,3.27
2019-04-14T01:59:32.661Z,2.50
2019-04-14T02:02:03.018Z,2.60
2019-04-14T02:04:33.380Z,2.50
2019-04-14T02:07:03.740Z,3.40
2019-04-14T02:09:33.599Z,2.40
2019-04-14T02:12:03.844Z,3.03
2019-04-14T02:14:34.194Z,2.97
2019-04-14T02:17:04.906Z,2.30
2019-04-14T02:19:34.949Z,3.97
2019-04-14T02:22:05.160Z,3.40
2019-04-14T02:24:35.210Z,3.27
2019-04-14T02:27:05.474Z,4.13
2019-04-14T02:29:34.646Z,2.90
2019-04-14T02:35:06.227Z,3.03
2019-04-14T02:37:40.335Z,2.93
2019-04-14T02:40:04.084Z,4.27
2019-04-14T02:47:53.710Z,2.90
2019-04-14T02:50:08.750Z,2.60
2019-04-14T02:52:35.001Z,2.70
2019-04-14T02:55:10.921Z,3.63
2019-04-14T02:57:57.319Z,3.03
2019-04-14T03:00:07.845Z,3.43
2019-04-14T03:02:38.893Z,3.13
2019-04-14T03:10:14.658Z,3.47
2019-04-14T03:12:46.589Z,3.03
2019-04-14T03:15:17.737Z,4.23
2019-04-14T03:18:20.405Z,3.30
2019-04-14T03:20:52.565Z,4.87
2019-04-14T03:23:34.835Z,3.77
2019-04-14T03:26:01.028Z,3.30
2019-04-14T03:28:45.383Z,4.37
2019-04-14T03:34:07.499Z,4.27
2019-04-14T03:36:50.346Z,3.87
2019-04-14T03:38:54.995Z,4.67
2019-04-14T03:41:17.396Z,4.00
2019-04-14T03:43:38.849Z,3.90
2019-04-14T03:46:19.647Z,3.73
2019-04-14T03:51:21.224Z,2.80
2019-04-14T03:53:43.949Z,4.77
2019-04-14T03:56:27.250Z,3.03
2019-04-14T03:58:57.609Z,2.77
2019-04-14T04:01:27.960Z,3.27
2019-04-14T04:03:57.108Z,4.90
2019-04-14T04:06:27.078Z,2.40
2019-04-14T04:08:57.367Z,2.40
2019-04-14T04:11:26.466Z,3.63
2019-04-14T04:13:56.391Z,2.63
2019-04-14T04:16:37.641Z,2.40
2019-04-14T04:19:18.294Z,3.97
2019-04-14T04:22:12.904Z,3.03
2019-04-14T04:24:57.005Z,3.10
2019-04-14T04:27:46.181Z,2.50
2019-04-14T04:30:25.386Z,4.10
2019-04-14T04:33:10.953Z,2.37
2019-04-14T04:35:47.905Z,2.47
2019-04-14T04:38:35.516Z,3.20
2019-04-14T04:41:05.773Z,3.10
2019-04-14T04:43:35.041Z,5.10
2019-04-14T04:46:04.861Z,3.53
2019-04-14T04:48:34.956Z,5.17
2019-04-14T04:51:05.021Z,3.37
2019-04-14T04:53:34.091Z,2.60
2019-04-14T04:56:03.636Z,3.97
2019-04-14T04:58:32.842Z,2.70
2019-04-14T05:01:01.953Z,5.33
2019-04-14T05:03:31.815Z,2.87
2019-04-14T05:06:46.667Z,3.50
2019-04-14T05:09:33.765Z,2.90
2019-04-14T05:12:17.905Z,2.77
2019-04-14T05:14:52.408Z,2.60
2019-04-14T05:17:21.669Z,3.00
2019-04-14T05:19:51.815Z,1.90
2019-04-14T05:22:22.250Z,2.93
2019-04-14T05:24:51.382Z,2.20
2019-04-14T05:27:21.067Z,3.63
2019-04-14T05:29:50.152Z,2.07
2019-04-14T05:32:19.471Z,3.03
2019-04-14T05:34:50.127Z,3.43
2019-04-14T05:37:20.288Z,2.43
2019-04-14T05:39:50.414Z,3.70
2019-04-14T05:42:23.804Z,3.00
2019-04-14T05:44:51.445Z,3.50
2019-04-14T05:47:21.789Z,3.50
2019-04-14T05:49:54.300Z,3.37
2019-04-14T05:52:21.621Z,2.50
2019-04-14T05:54:51.504Z,2.80
2019-04-14T05:57:20.585Z,5.83
2019-04-14T05:59:50.523Z,7.00
2019-04-14T06:02:20.219Z,4.20
2019-04-14T06:04:50.417Z,5.47
2019-04-14T06:07:19.624Z,5.03
2019-04-14T06:09:48.681Z,6.63
2019-04-14T06:12:17.797Z,5.77
2019-04-14T06:14:46.749Z,7.23
2019-04-14T06:17:15.674Z,5.97
2019-04-14T06:19:44.730Z,4.90
2019-04-14T06:22:13.807Z,7.30
2019-04-14T06:24:42.873Z,5.67
2019-04-14T06:27:11.899Z,8.57
2019-04-14T06:29:40.961Z,7.47
2019-04-14T06:32:19.361Z,6.93
2019-04-14T06:35:11.252Z,6.07
2019-04-14T06:37:59.330Z,6.07
2019-04-14T06:40:31.350Z,7.47
2019-04-14T06:43:00.403Z,7.87
2019-04-14T06:45:29.479Z,5.00
2019-04-14T06:47:58.540Z,5.23
2019-04-14T06:50:27.594Z,4.27
2019-04-14T06:52:56.672Z,4.80
2019-04-14T06:55:25.655Z,7.87
2019-04-14T06:57:54.651Z,8.20
2019-04-14T07:00:23.701Z,7.13
2019-04-14T07:02:52.693Z,6.13
2019-04-14T07:05:21.746Z,8.50
2019-04-14T07:07:56.777Z,7.17
2019-04-14T07:10:21.603Z,8.07
2019-04-14T07:12:50.672Z,7.33
2019-04-14T07:15:19.731Z,8.17
2019-04-14T07:17:48.760Z,8.87
2019-04-14T07:20:17.811Z,8.30
2019-04-14T07:22:46.820Z,10.63
2019-04-14T07:25:15.886Z,7.87
2019-04-14T07:27:44.984Z,9.00
2019-04-14T07:30:33.061Z,10.50
2019-04-14T07:33:20.090Z,9.90
2019-04-14T07:36:26.669Z,12.57
2019-04-14T07:39:26.762Z,14.57
2019-04-14T07:42:01.828Z,13.43
2019-04-14T07:44:43.551Z,12.90
2019-04-14T07:47:17.062Z,14.33
2019-04-14T07:50:17.047Z,12.60
2019-04-14T07:53:05.128Z,12.40
2019-04-14T07:55:52.063Z,10.13
2019-04-14T07:58:27.896Z,11.90
2019-04-14T08:01:09.803Z,13.27
2019-04-14T08:04:13.041Z,13.03
2019-04-14T08:06:45.906Z,10.13
2019-04-14T08:09:14.971Z,10.77
2019-04-14T08:11:44.059Z,13.90
2019-04-14T08:14:13.114Z,13.40
2019-04-14T08:16:42.207Z,16.50
2019-04-14T08:19:11.266Z,13.83
2019-04-14T08:21:40.507Z,14.27
2019-04-14T08:24:09.563Z,13.83
2019-04-14T08:26:38.663Z,10.37
2019-04-14T08:29:07.718Z,18.07
2019-04-14T08:31:36.803Z,16.33
2019-04-14T08:34:05.875Z,14.10
2019-04-14T08:36:34.972Z,14.20
2019-04-14T08:39:06.141Z,14.77
2019-04-14T08:41:43.421Z,13.40
2019-04-14T08:44:20.158Z,11.17
2019-04-14T08:47:16.571Z,13.40
2019-04-14T08:49:58.029Z,14.43
2019-04-14T08:52:34.733Z,12.07
2019-04-14T08:55:23.145Z,11.97
2019-04-14T08:58:04.268Z,10.23
2019-04-14T09:00:56.883Z,12.80
2019-04-14T09:03:44.529Z,11.00
2019-04-14T09:06:27.333Z,13.80
2019-04-14T09:09:02.179Z,12.63
2019-04-14T09:11:45.106Z,12.93
2019-04-14T09:14:14.198Z,14.73
2019-04-14T09:16:43.278Z,15.37
2019-04-14T09:19:12.366Z,13.40
2019-04-14T09:21:41.434Z,13.07
2019-04-14T09:24:10.449Z,13.50
2019-04-14T09:26:39.465Z,12.70
2019-04-14T09:29:08.482Z,10.87
2019-04-14T09:31:37.473Z,12.97
2019-04-14T09:34:06.560Z,11.10
2019-04-14T09:36:35.639Z,12.20
2019-04-14T09:39:06.272Z,14.90
2019-04-14T09:41:35.389Z,11.87
2019-04-14T09:44:04.872Z,8.43
2019-04-14T09:46:33.936Z,12.30
2019-04-14T09:49:03.028Z,13.80
2019-04-14T09:51:32.094Z,11.93
2019-04-14T09:54:01.183Z,11.20
2019-04-14T09:56:30.247Z,10.20
2019-04-14T09:58:59.335Z,14.63
2019-04-14T10:01:28.402Z,11.70
2019-04-14T10:03:57.404Z,9.90
2019-04-14T10:06:26.405Z,10.50
2019-04-14T10:08:55.413Z,10.13
2019-04-14T10:11:24.484Z,8.83
2019-04-14T10:13:53.486Z,10.97
2019-04-14T10:16:22.564Z,7.90
2019-04-14T10:18:51.620Z,10.03
2019-04-14T10:21:20.685Z,9.63
2019-04-14T10:23:49.620Z,11.13
2019-04-14T10:26:18.718Z,13.20
2019-04-14T10:28:50.597Z,10.03
2019-04-14T10:31:18.607Z,11.23
2019-04-14T10:33:47.626Z,10.97
2019-04-14T10:36:16.605Z,9.80
2019-04-14T10:38:45.621Z,10.93
2019-04-14T10:41:14.686Z,10.60
2019-04-14T10:43:43.772Z,10.37
2019-04-14T10:46:12.689Z,10.50
2019-04-14T10:48:41.769Z,10.60
2019-04-14T10:51:10.829Z,10.27
2019-04-14T10:53:39.918Z,10.33
2019-04-14T10:56:08.985Z,11.27
2019-04-14T10:58:38.061Z,12.30
2019-04-14T11:01:07.121Z,9.63
2019-04-14T11:03:36.212Z,11.57
2019-04-14T11:06:15.251Z,11.63
2019-04-14T11:08:44.339Z,9.67
2019-04-14T11:11:13.401Z,9.13
2019-04-14T11:13:42.396Z,11.53
2019-04-14T11:16:11.467Z,10.33
2019-04-14T11:18:40.541Z,9.27
2019-04-14T11:21:09.607Z,10.20
2019-04-14T11:23:38.695Z,8.60
2019-04-14T11:26:07.747Z,11.00
2019-04-14T11:28:36.842Z,11.00
2019-04-14T11:31:06.070Z,8.50
2019-04-14T11:33:53.134Z,9.30
2019-04-14T11:36:43.884Z,8.77
2019-04-14T11:39:14.374Z,10.70
2019-04-14T11:41:43.410Z,9.73
2019-04-14T11:44:12.504Z,8.00
2019-04-14T11:46:41.546Z,6.50
2019-04-14T11:49:10.621Z,10.70
2019-04-14T11:51:39.611Z,9.37
2019-04-14T11:54:08.591Z,12.63
2019-04-14T11:56:37.691Z,9.77
2019-04-14T11:59:06.736Z,9.83
2019-04-14T12:01:57.802Z,9.50
2019-04-14T12:04:44.046Z,9.93
2019-04-14T12:07:31.545Z,10.77
2019-04-14T12:10:06.498Z,12.40
2019-04-14T12:12:35.555Z,11.77
2019-04-14T12:15:07.614Z,12.37
2019-04-14T12:17:36.139Z,13.07
2019-04-14T12:20:06.826Z,10.33
2019-04-14T12:22:35.897Z,12.20
2019-04-14T12:25:05.529Z,10.00
2019-04-14T12:27:34.554Z,13.83
2019-04-14T12:30:04.090Z,14.07
2019-04-14T12:32:33.554Z,11.27
2019-04-14T12:35:02.636Z,16.60
2019-04-14T12:37:31.628Z,12.40
2019-04-14T12:40:00.713Z,11.23
2019-04-14T12:42:51.004Z,13.87
2019-04-14T12:45:37.964Z,12.90
2019-04-14T12:48:22.094Z,9.00
2019-04-14T12:50:54.367Z,16.90
2019-04-14T12:53:23.441Z,14.60
2019-04-14T12:55:52.517Z,9.90
2019-04-14T12:58:26.942Z,14.70
2019-04-14T13:01:00.774Z,12.30
2019-04-14T13:03:32.037Z,15.77
2019-04-14T13:06:01.111Z,13.67
2019-04-14T13:08:30.095Z,16.63
2019-04-14T13:10:59.178Z,21.63
2019-04-14T13:13:28.341Z,22.27
2019-04-14T13:15:57.424Z,16.67
2019-04-14T13:18:26.416Z,18.47
2019-04-14T13:20:55.492Z,13.97
2019-04-14T13:23:24.550Z,14.60
2019-04-14T13:25:53.636Z,18.93
2019-04-14T13:28:22.726Z,14.53
2019-04-14T13:30:52.494Z,19.13
2019-04-14T13:33:21.554Z,20.53
2019-04-14T13:35:50.694Z,22.00
2019-04-14T13:38:19.743Z,19.53
2019-04-14T13:40:48.817Z,24.63
2019-04-14T13:43:17.820Z,21.43
2019-04-14T13:45:46.881Z,20.17
2019-04-14T13:48:15.888Z,22.30
2019-04-14T13:50:44.949Z,21.73
2019-04-14T13:53:14.023Z,20.97
2019-04-14T13:55:43.077Z,21.93
2019-04-14T13:58:12.160Z,21.43
2019-04-14T14:00:41.221Z,19.53
2019-04-14T14:03:10.294Z,19.97
2019-04-14T14:05:39.360Z,17.57
2019-04-14T14:08:08.441Z,20.43
2019-04-14T14:10:37.513Z,18.80
2019-04-14T14:13:21.559Z,28.57
2019-04-14T14:16:08.339Z,33.93
2019-04-14T14:18:59.375Z,22.20
2019-04-14T14:21:41.353Z,20.40
2019-04-14T14:24:35.175Z,23.83
2019-04-14T14:27:04.352Z,21.33
2019-04-14T14:29:33.469Z,22.70
2019-04-14T14:32:05.038Z,16.50
2019-04-14T14:34:34.047Z,17.83
2019-04-14T14:37:03.038Z,21.93
2019-04-14T14:39:32.131Z,20.67
2019-04-14T14:42:01.118Z,17.03
2019-04-14T14:44:36.206Z,22.80
2019-04-14T14:47:17.794Z,23.73
2019-04-14T14:49:58.361Z,20.83
2019-04-14T14:52:27.453Z,21.50
2019-04-14T14:54:56.437Z,22.47
2019-04-14T14:57:25.554Z,18.73
2019-04-14T14:59:54.664Z,19.97
2019-04-14T15:02:23.928Z,17.83
2019-04-14T15:04:52.953Z,20.67
2019-04-14T15:07:21.934Z,22.53
2019-04-14T15:09:50.948Z,19.80
2019-04-14T15:12:20.010Z,19.77
2019-04-14T15:14:49.016Z,17.93
2019-04-14T15:17:18.281Z,18.00
2019-04-14T15:19:47.300Z,14.17
2019-04-14T15:22:16.281Z,16.77
2019-04-14T15:24:45.364Z,19.93
2019-04-14T15:27:14.446Z,14.37
2019-04-14T15:29:43.531Z,16.97
2019-04-14T15:32:12.652Z,17.37
2019-04-14T15:34:42.120Z,9.83
2019-04-14T15:37:11.133Z,8.60
2019-04-14T15:39:40.518Z,9.93
2019-04-14T15:42:09.562Z,8.63
2019-04-14T15:44:38.642Z,20.20
2019-04-14T15:47:07.698Z,9.67
2019-04-14T15:49:36.703Z,7.10
2019-04-14T15:52:05.762Z,15.13
2019-04-14T15:54:35.750Z,13.47
2019-04-14T15:57:24.902Z,13.97
2019-04-14T16:00:11.716Z,16.87
2019-04-14T16:02:46.477Z,12.00
2019-04-14T16:05:37.814Z,9.67
2019-04-14T16:08:10.773Z,9.20
2019-04-14T16:10:45.341Z,13.87
2019-04-14T16:13:36.230Z,9.27
2019-04-14T16:16:27.422Z,9.57
2019-04-14T16:19:13.889Z,6.13
2019-04-14T16:21:42.943Z,5.90
2019-04-14T16:24:12.000Z,6.73
2019-04-14T16:27:00.118Z,5.30
2019-04-14T16:29:39.201Z,8.57
2019-04-14T16:32:18.019Z,7.30
2019-04-14T16:34:50.609Z,5.30
2019-04-14T16:37:19.665Z,5.00
2019-04-14T16:39:48.665Z,3.83
2019-04-14T16:42:17.723Z,3.90
2019-04-14T16:44:46.735Z,3.77
2019-04-14T16:47:15.711Z,3.40
2019-04-14T16:49:44.795Z,5.13
2019-04-14T16:52:41.868Z,4.53
2019-04-14T16:55:23.420Z,4.93
2019-04-14T16:58:09.281Z,6.83
2019-04-14T17:00:41.744Z,5.30
2019-04-14T17:03:10.794Z,4.10
2019-04-14T17:05:39.889Z,3.47
2019-04-14T17:08:08.991Z,9.13
2019-04-14T17:10:38.079Z,4.17
2019-04-14T17:13:07.256Z,5.37
2019-04-14T17:15:54.112Z,3.50
2019-04-14T17:18:42.162Z,3.53
2019-04-14T17:21:31.473Z,4.70
2019-04-14T17:24:16.416Z,3.33
2019-04-14T17:27:00.765Z,4.10
2019-04-14T17:29:54.632Z,3.63
2019-04-14T17:32:28.886Z,3.60
2019-04-14T17:35:09.331Z,3.40
2019-04-14T17:38:09.506Z,3.80
2019-04-14T17:40:56.371Z,3.20
2019-04-14T17:43:39.076Z,4.10
2019-04-14T17:46:16.802Z,3.50
2019-04-14T17:49:07.599Z,3.30
2019-04-14T17:51:47.866Z,3.10
2019-04-14T17:54:34.148Z,3.90
2019-04-14T17:57:24.978Z,3.20
2019-04-14T18:00:11.827Z,4.27
2019-04-14T18:02:54.525Z,2.97
2019-04-14T18:05:33.903Z,3.10
2019-04-14T18:08:12.445Z,3.43
2019-04-14T18:11:00.567Z,4.43
2019-04-14T18:13:47.400Z,3.93
2019-04-14T18:16:24.277Z,5.10
2019-04-14T18:19:18.161Z,4.00
2019-04-14T18:21:47.261Z,3.20
2019-04-14T18:24:16.438Z,3.03
2019-04-14T18:26:45.557Z,3.17
2019-04-14T18:29:30.752Z,3.40
2019-04-14T18:32:07.877Z,3.43
2019-04-14T18:35:14.371Z,3.20
2019-04-14T18:38:01.420Z,3.10
2019-04-14T18:40:55.578Z,3.63
2019-04-14T18:43:52.513Z,4.83
2019-04-14T18:46:29.097Z,3.47
2019-04-14T18:49:10.174Z,4.00
2019-04-14T18:51:43.169Z,5.03
2019-04-14T18:54:31.146Z,4.60
2019-04-14T18:57:07.056Z,4.67
2019-04-14T18:59:53.748Z,4.83
2019-04-14T19:02:22.821Z,6.27
2019-04-14T19:04:51.876Z,5.83
2019-04-14T19:07:20.881Z,4.83
2019-04-14T19:09:49.930Z,4.33
2019-04-14T19:12:36.018Z,4.67
2019-04-14T19:15:25.246Z,4.80
2019-04-14T19:18:01.566Z,5.37
2019-04-14T19:20:30.615Z,4.90
2019-04-14T19:22:59.686Z,5.17
2019-04-14T19:25:28.746Z,4.70
2019-04-14T19:27:57.861Z,4.87
2019-04-14T19:30:26.904Z,4.83
2019-04-14T19:32:55.983Z,5.73
2019-04-14T19:35:26.892Z,5.87
2019-04-14T19:37:55.846Z,6.43
2019-04-14T19:40:24.905Z,5.33
2019-04-14T19:42:53.977Z,8.93
2019-04-14T19:45:23.035Z,7.00
2019-04-14T19:47:52.117Z,6.43
2019-04-14T19:50:21.205Z,8.93
2019-04-14T19:52:50.297Z,6.17
2019-04-14T19:55:20.581Z,5.90
2019-04-14T19:57:49.930Z,4.90
2019-04-14T20:00:18.984Z,5.83
2019-04-14T20:02:47.993Z,5.20
2019-04-14T20:05:17.033Z,6.57
2019-04-14T20:07:46.108Z,6.00
2019-04-14T20:10:15.369Z,5.17
2019-04-14T20:12:44.486Z,4.40
2019-04-14T20:15:16.796Z,4.50
2019-04-14T20:18:07.706Z,4.70
2019-04-14T20:20:55.999Z,5.33
2019-04-14T20:23:30.450Z,4.40
2019-04-14T20:26:19.118Z,4.60
2019-04-14T20:29:07.233Z,5.57
2019-04-14T20:31:38.884Z,5.90
2019-04-14T20:34:07.956Z,5.67
2019-04-14T20:36:37.004Z,6.00
2019-04-14T20:39:09.798Z,5.77
2019-04-14T20:41:38.922Z,6.10
2019-04-14T20:44:08.004Z,5.70
2019-04-14T20:46:37.060Z,8.63
2019-04-14T20:49:06.251Z,5.10
2019-04-14T20:51:35.385Z,6.60
2019-04-14T20:54:04.541Z,8.23
2019-04-14T20:56:33.508Z,7.47
2019-04-14T20:59:02.580Z,5.63
2019-04-14T21:01:33.858Z,7.87
2019-04-14T21:04:10.700Z,6.20
2019-04-14T21:07:01.658Z,9.93
2019-04-14T21:09:58.644Z,10.13
2019-04-14T21:12:36.334Z,7.97
2019-04-14T21:15:23.852Z,8.57
2019-04-14T21:18:07.669Z,6.20
2019-04-14T21:20:48.392Z,5.53
2019-04-14T21:23:35.315Z,7.93
2019-04-14T21:26:22.465Z,7.47
2019-04-14T21:29:10.537Z,5.03
2019-04-14T21:31:44.374Z,5.27
2019-04-14T21:34:35.279Z,8.03
2019-04-14T21:37:16.425Z,7.33
2019-04-14T21:39:53.536Z,5.17
2019-04-14T21:42:22.517Z,9.17
2019-04-14T21:44:51.513Z,9.13
2019-04-14T21:47:20.497Z,5.37
2019-04-14T21:49:49.550Z,5.23
2019-04-14T21:52:37.623Z,6.37
2019-04-14T21:55:06.915Z,6.63
2019-04-14T21:57:58.023Z,7.20
2019-04-14T22:01:25.050Z,6.93
2019-04-14T22:04:04.952Z,4.77
2019-04-14T22:06:37.167Z,5.20
2019-04-14T22:09:11.512Z,6.10
2019-04-14T22:11:40.595Z,6.33
2019-04-14T22:14:09.652Z,5.67
2019-04-14T22:16:38.724Z,6.60
2019-04-14T22:19:07.777Z,6.53
2019-04-14T22:21:36.854Z,7.47
2019-04-14T22:24:05.904Z,6.13
2019-04-14T22:26:35.006Z,6.03
2019-04-14T22:29:04.059Z,4.90
2019-04-14T22:31:33.122Z,5.93
2019-04-14T22:34:02.174Z,5.57
2019-04-14T22:36:31.252Z,4.00
2019-04-14T22:39:00.309Z,3.93
2019-04-14T22:41:29.316Z,4.80
2019-04-14T22:43:58.291Z,5.10
2019-04-14T22:46:27.368Z,2.97
2019-04-14T22:48:56.418Z,4.17
2019-04-14T22:51:25.496Z,5.10
2019-04-14T22:53:54.543Z,3.87
2019-04-14T22:56:23.534Z,4.20
2019-04-14T22:58:52.507Z,4.40
2019-04-14T23:01:25.940Z,4.50
2019-04-14T23:04:06.757Z,3.63
2019-04-14T23:06:57.720Z,3.07
2019-04-14T23:09:34.826Z,4.33
2019-04-14T23:12:21.721Z,3.40
2019-04-14T23:15:16.027Z,4.73
2019-04-14T23:18:16.185Z,3.07
2019-04-14T23:21:00.081Z,6.23
2019-04-14T23:23:42.337Z,3.10
2019-04-14T23:26:11.314Z,3.70
2019-04-14T23:28:40.347Z,3.43
2019-04-14T23:31:09.404Z,2.77
2019-04-14T23:33:38.402Z,2.13
2019-04-14T23:36:07.449Z,2.30
2019-04-14T23:38:36.522Z,2.77
2019-04-14T23:41:05.575Z,2.80
2019-04-14T23:43:34.658Z,3.07
2019-04-14T23:46:03.795Z,2.47
2019-04-14T23:48:32.876Z,2.43
2019-04-14T23:51:01.932Z,2.20
2019-04-14T23:53:31.000Z,2.13
2019-04-14T23:56:00.056Z,2.00
2019-04-14T23:58:29.133Z,3.87
